Time;durP1;ratioP1;P1;durP2;ratioP2;P2;SDS_P1;SDS_P2;PMS_P1;PMS_P2;Temp;Humidity;BMP_temperature;BMP_pressure;BME280_temperature;BME280_humidity;BME280_pressure;Samples;Min_cycle;Max_cycle;Signal;HPM_P1;HPM_P2
2023/01/11 01:15:25;;;;;;;23.80;9.90;;;;;;;4.80;85.12;101326.65;107474;1295;21987;-68
2023/01/11 01:17:54;;;;;;;20.00;9.80;;;;;;;5.32;76.87;101330.42;107432;1295;21998;-67
2023/01/11 01:20:20;;;;;;;23.10;8.90;;;;;;;5.55;75.18;101330.96;107404;1295;21997;-61
2023/01/11 01:22:46;;;;;;;18.30;7.90;;;;;;;5.70;73.53;101330.27;107343;1296;24355;-69
2023/01/11 01:25:13;;;;;;;14.40;6.30;;;;;;;5.80;72.50;101332.59;107344;1293;218058;-67
2023/01/11 01:27:39;;;;;;;22.90;7.20;;;;;;;5.96;71.76;101332.95;107826;1293;22090;-69
2023/01/11 01:30:08;;;;;;;16.60;6.30;;;;;;;6.11;70.82;101333.83;107753;1293;22461;-60
2023/01/11 01:32:34;;;;;;;20.30;6.20;;;;;;;6.11;70.33;101338.02;107856;1293;23731;-60
2023/01/11 01:35:00;;;;;;;15.90;6.80;;;;;;;6.16;69.88;101339.34;107933;1293;21999;-69
2023/01/11 01:37:25;;;;;;;13.30;4.90;;;;;;;6.21;69.61;101339.79;107725;1292;21998;-68
2023/01/11 01:39:51;;;;;;;16.10;5.70;;;;;;;6.25;68.71;101341.95;107783;1294;22012;-59
2023/01/11 01:42:22;;;;;;;16.10;5.50;;;;;;;6.25;68.00;101346.31;107722;1294;21998;-59
2023/01/11 01:44:54;;;;;;;19.30;6.00;;;;;;;6.35;67.74;101352.10;107840;1294;21993;-59
2023/01/11 01:47:21;;;;;;;13.70;5.60;;;;;;;6.43;66.77;101356.10;107771;1294;22034;-60
2023/01/11 01:49:47;;;;;;;14.20;5.50;;;;;;;6.42;66.40;101354.33;107899;1293;21999;-60
2023/01/11 01:52:13;;;;;;;14.90;5.90;;;;;;;6.44;66.11;101359.60;107728;1294;22018;-69
2023/01/11 01:54:41;;;;;;;13.40;5.70;;;;;;;6.46;65.55;101364.70;107781;1284;21997;-67
2023/01/11 01:57:10;;;;;;;13.70;5.10;;;;;;;6.49;65.36;101372.27;107808;1293;21990;-69
2023/01/11 01:59:36;;;;;;;13.90;5.50;;;;;;;6.50;65.37;101374.55;107750;1282;22015;-62
2023/01/11 02:02:02;;;;;;;18.20;6.00;;;;;;;6.49;65.09;101375.73;107631;1293;22010;-68
2023/01/11 02:04:33;;;;;;;14.10;4.60;;;;;;;6.49;64.99;101380.45;107738;1293;22005;-60
2023/01/11 02:07:01;;;;;;;15.60;5.60;;;;;;;6.46;64.87;101382.14;107770;1293;22036;-69
2023/01/11 02:09:35;;;;;;;19.20;6.50;;;;;;;6.44;64.42;101385.58;107871;1290;21992;-69
2023/01/11 02:12:02;;;;;;;14.90;6.10;;;;;;;6.43;64.27;101383.45;107837;1290;22037;-68
2023/01/11 02:14:29;;;;;;;18.00;5.50;;;;;;;6.44;64.39;101388.36;107950;1290;22036;-60
2023/01/11 02:16:55;;;;;;;13.90;5.60;;;;;;;6.45;64.17;101393.26;107981;1290;22030;-60
2023/01/11 02:19:56;;;;;;;18.10;5.90;;;;;;;6.44;64.13;101388.88;107980;1290;22038;-60
2023/01/11 02:22:51;;;;;;;16.40;7.10;;;;;;;6.42;63.66;101386.58;107900;1290;22039;-68
2023/01/11 02:25:31;;;;;;;20.20;5.80;;;;;;;6.42;63.72;101384.66;107621;1290;21996;-60
2023/01/11 02:28:06;;;;;;;14.70;5.80;;;;;;;6.40;63.47;101378.89;107717;1291;22571;-68
2023/01/11 02:30:53;;;;;;;21.60;5.00;;;;;;;6.39;63.45;101375.38;107851;1278;22946;-69
2023/01/11 02:33:31;;;;;;;12.10;4.60;;;;;;;6.40;62.84;101371.90;107975;1291;21997;-68
2023/01/11 02:36:06;;;;;;;15.90;5.90;;;;;;;6.37;62.37;101365.57;108047;1291;22073;-64
2023/01/11 02:38:43;;;;;;;16.80;5.60;;;;;;;6.32;62.01;101369.64;107907;1290;21993;-60
2023/01/11 02:47:27;;;;;;;12.50;5.10;;;;;;;6.20;61.86;101395.87;107775;1290;22004;-69
2023/01/11 02:50:01;;;;;;;16.80;6.00;;;;;;;6.13;61.83;101397.65;107879;1290;21991;-60
2023/01/11 02:52:35;;;;;;;15.60;4.90;;;;;;;5.96;62.33;101393.92;107908;1290;22027;-68
2023/01/11 02:55:01;;;;;;;13.00;4.90;;;;;;;5.91;62.29;101391.36;107838;1290;22209;-69
2023/01/11 02:57:28;;;;;;;13.50;4.80;;;;;;;5.90;62.57;101385.77;107963;1290;22034;-60
2023/01/11 02:59:56;;;;;;;12.60;4.70;;;;;;;5.92;62.64;101385.48;107939;1290;22042;-59
2023/01/11 03:02:23;;;;;;;12.70;4.60;;;;;;;5.94;62.71;101386.91;107874;1290;21970;-60
2023/01/11 03:04:48;;;;;;;9.90;4.90;;;;;;;5.92;62.45;101394.52;106964;1290;1002327;-60
2023/01/11 03:07:22;;;;;;;16.00;4.80;;;;;;;5.91;62.31;101404.09;107922;1290;21993;-60
2023/01/11 03:10:20;;;;;;;20.70;6.20;;;;;;;5.92;62.38;101392.27;107854;1290;21998;-68
2023/01/11 03:13:20;;;;;;;13.30;4.80;;;;;;;5.91;61.91;101379.87;107851;1290;22005;-68
2023/01/11 03:16:12;;;;;;;16.30;4.70;;;;;;;5.87;61.74;101386.05;107702;1290;22019;-59
2023/01/11 03:18:52;;;;;;;10.70;4.50;;;;;;;5.84;61.88;101392.95;107698;1289;22002;-59
2023/01/11 03:21:28;;;;;;;11.70;4.40;;;;;;;5.83;61.78;101399.72;107740;1290;21996;-60
2023/01/11 03:24:00;;;;;;;9.80;5.10;;;;;;;5.85;61.78;101414.39;107709;1286;22571;-60
2023/01/11 03:26:34;;;;;;;15.00;4.20;;;;;;;5.88;61.98;101427.54;107663;1290;22003;-69
2023/01/11 03:29:19;;;;;;;12.50;5.00;;;;;;;5.91;62.24;101435.99;107686;1290;22008;-69
2023/01/11 03:31:49;;;;;;;15.10;5.20;;;;;;;5.92;62.12;101432.70;107730;1290;22035;-59
2023/01/11 03:34:32;;;;;;;9.40;4.50;;;;;;;5.93;62.18;101434.46;107813;1286;21985;-69
2023/01/11 03:37:00;;;;;;;13.30;4.70;;;;;;;5.96;62.00;101443.77;107689;1290;21996;-68
2023/01/11 03:39:38;;;;;;;16.00;5.60;;;;;;;6.00;62.00;101444.17;107769;1290;21997;-60
2023/01/11 03:42:05;;;;;;;17.40;5.80;;;;;;;6.02;62.02;101451.59;107744;1290;22001;-69
2023/01/11 03:44:34;;;;;;;12.40;4.40;;;;;;;6.03;61.49;101462.24;107792;1290;22033;-69
2023/01/11 03:47:03;;;;;;;12.70;4.30;;;;;;;6.01;61.12;101467.05;107945;1290;21997;-59
2023/01/11 03:49:53;;;;;;;14.40;5.00;;;;;;;5.98;61.12;101477.95;107826;1290;21995;-59
2023/01/11 03:52:21;;;;;;;24.20;5.20;;;;;;;5.96;61.34;101485.05;107673;1290;22100;-60
2023/01/11 07:11:19;;;;;;;30.60;9.10;;;;;;;-0.44;98.27;101562.13;107416;1290;548261;-59
2023/01/11 07:13:45;;;;;;;27.40;12.00;;;;;;;2.87;80.23;101544.67;107747;1289;21995;-59
2023/01/11 07:16:11;;;;;;;23.80;9.70;;;;;;;3.29;74.58;101544.13;107796;1293;21988;-59
2023/01/11 07:18:37;;;;;;;20.90;6.70;;;;;;;3.56;71.77;101542.49;107866;1292;22011;-59
2023/01/11 07:21:03;;;;;;;17.00;6.30;;;;;;;3.75;70.07;101538.62;107805;1292;21992;-69
2023/01/11 07:23:30;;;;;;;16.60;5.80;;;;;;;3.90;69.11;101544.54;107569;1289;333581;-59
2023/01/11 07:25:56;;;;;;;18.20;5.60;;;;;;;4.05;68.32;101543.45;107913;1289;22029;-59
2023/01/11 07:28:21;;;;;;;15.80;5.10;;;;;;;4.19;67.76;101544.23;107929;1289;22025;-69
2023/01/11 07:30:48;;;;;;;16.50;5.30;;;;;;;4.28;67.20;101541.59;107791;1290;22002;-69
2023/01/11 07:33:16;;;;;;;12.90;3.90;;;;;;;4.35;66.49;101542.67;107800;1288;22009;-59
2023/01/11 07:35:42;;;;;;;18.00;5.60;;;;;;;4.39;65.88;101546.63;107146;1289;1003115;-69
2023/01/11 07:38:10;;;;;;;16.50;5.70;;;;;;;4.40;65.37;101551.36;107821;1289;21988;-70
2023/01/11 07:40:36;;;;;;;14.10;5.70;;;;;;;4.43;65.00;101555.79;107797;1289;22007;-59
2023/01/11 07:43:13;;;;;;;13.20;5.20;;;;;;;4.43;65.18;101557.36;107902;1289;22023;-68
2023/01/11 07:45:44;;;;;;;13.50;5.90;;;;;;;4.52;64.88;101558.15;107858;1289;22004;-69
2023/01/11 07:48:10;;;;;;;23.20;6.20;;;;;;;4.60;64.74;101563.27;107838;1286;21990;-60
2023/01/11 07:50:37;;;;;;;22.90;7.00;;;;;;;4.64;64.65;101570.68;107860;1289;21999;-70
2023/01/11 07:53:04;;;;;;;23.30;7.70;;;;;;;4.69;64.34;101563.89;107900;1289;21987;-70
2023/01/11 07:55:29;;;;;;;18.40;7.20;;;;;;;4.72;63.86;101564.86;107018;1286;1002562;-71
2023/01/11 07:57:56;;;;;;;20.40;8.00;;;;;;;4.74;63.46;101573.11;107050;1289;1002398;-71
2023/01/11 08:00:23;;;;;;;14.70;5.60;;;;;;;4.75;63.36;101572.79;107800;1277;21995;-60
2023/01/11 08:02:51;;;;;;;16.30;6.90;;;;;;;4.77;63.23;101576.84;107783;1289;22000;-60
2023/01/11 08:05:18;;;;;;;12.40;5.70;;;;;;;4.81;63.16;101592.09;107778;1288;21988;-71
2023/01/11 08:07:44;;;;;;;17.40;6.80;;;;;;;4.81;62.56;101592.06;107830;1289;22460;-60
2023/01/11 08:10:10;;;;;;;12.20;4.60;;;;;;;4.89;62.15;101592.68;107804;1289;24320;-59
2023/01/11 08:15:31;;;;;;;16.70;5.80;;;;;;;4.94;61.67;101589.70;107801;1289;21989;-60
2023/01/11 08:17:58;;;;;;;17.70;6.10;;;;;;;4.94;61.55;101591.61;107745;1289;22027;-71
2023/01/11 08:20:25;;;;;;;21.60;5.60;;;;;;;4.99;61.54;101591.42;107970;1286;21991;-60
2023/01/11 08:22:52;;;;;;;15.60;5.50;;;;;;;5.08;61.74;101593.23;108277;1287;22010;-60
2023/01/11 08:25:17;;;;;;;17.50;4.90;;;;;;;5.10;60.97;101588.79;108075;1288;23640;-71
2023/01/11 08:27:43;;;;;;;19.70;5.50;;;;;;;5.07;60.58;101593.05;107852;1288;22158;-61
2023/01/11 08:30:10;;;;;;;13.20;5.60;;;;;;;5.03;60.33;101601.46;107817;1288;21985;-60
2023/01/11 08:32:36;;;;;;;18.10;5.90;;;;;;;5.01;60.25;101604.86;107745;1289;22027;-71
2023/01/11 08:35:02;;;;;;;20.20;6.10;;;;;;;4.97;60.19;101608.05;107766;1288;22029;-58
2023/01/11 08:37:28;;;;;;;15.70;5.40;;;;;;;4.97;60.55;101603.86;107767;1289;21986;-70
2023/01/11 08:39:55;;;;;;;14.20;5.40;;;;;;;4.99;60.32;101598.37;108057;1288;21990;-60
2023/01/11 08:42:21;;;;;;;13.70;4.80;;;;;;;4.99;60.02;101595.76;107212;1289;1003353;-59
2023/01/11 08:44:47;;;;;;;23.90;6.30;;;;;;;4.98;60.31;101604.22;107829;1288;21990;-60
2023/01/11 08:47:13;;;;;;;24.10;6.40;;;;;;;4.98;60.35;101604.95;107794;1288;21990;-70
2023/01/11 08:49:41;;;;;;;47.60;7.50;;;;;;;4.97;60.28;101603.02;108012;1288;21990;-60
2023/01/11 08:52:12;;;;;;;13.90;5.40;;;;;;;4.82;60.87;101589.85;107849;1289;21994;-60
2023/01/11 08:54:39;;;;;;;15.40;6.60;;;;;;;4.78;60.52;101587.46;107856;1289;21993;-60
2023/01/11 08:57:04;;;;;;;18.60;6.60;;;;;;;4.78;60.44;101593.56;107807;1289;22028;-61
2023/01/11 08:59:30;;;;;;;15.50;5.30;;;;;;;4.81;60.83;101593.84;107849;1288;22025;-60
2023/01/11 09:01:56;;;;;;;13.70;5.30;;;;;;;4.82;60.51;101588.30;107760;1289;21998;-60
2023/01/11 09:04:21;;;;;;;12.80;5.30;;;;;;;4.82;60.43;101592.81;107788;1287;21999;-70
2023/01/11 09:06:47;;;;;;;14.70;5.50;;;;;;;4.82;60.58;101593.54;108000;1289;21995;-61
2023/01/11 09:09:13;;;;;;;14.80;5.70;;;;;;;4.83;60.29;101587.30;107923;1285;21993;-61
2023/01/11 09:11:53;;;;;;;11.80;4.70;;;;;;;4.84;60.54;101580.36;107829;1288;21982;-70
2023/01/11 09:14:20;;;;;;;14.50;5.90;;;;;;;4.86;60.51;101575.20;107790;1288;21992;-72
2023/01/11 09:16:47;;;;;;;14.20;5.70;;;;;;;4.87;60.44;101577.65;107204;1285;1002595;-60
2023/01/11 09:19:13;;;;;;;11.10;5.50;;;;;;;4.90;60.26;101581.21;107842;1289;22009;-71
2023/01/11 09:21:39;;;;;;;12.00;5.70;;;;;;;4.93;60.23;101582.35;107939;1286;21982;-60
2023/01/11 09:24:05;;;;;;;16.50;6.80;;;;;;;4.96;60.49;101570.98;107833;1288;22292;-71
2023/01/11 09:26:31;;;;;;;15.70;5.70;;;;;;;4.96;60.20;101569.23;107065;1288;1002923;-61
2023/01/11 09:28:58;;;;;;;18.50;6.40;;;;;;;4.96;60.01;101567.65;107813;1288;21984;-71
2023/01/11 09:31:24;;;;;;;14.50;5.40;;;;;;;4.96;59.90;101568.52;107879;1279;22052;-60
2023/01/11 09:33:50;;;;;;;18.90;5.40;;;;;;;4.96;60.09;101575.86;107802;1288;21994;-70
2023/01/11 09:36:20;;;;;;;11.90;5.20;;;;;;;4.97;59.87;101578.48;107722;1289;22004;-71
2023/01/11 09:38:49;;;;;;;15.80;5.50;;;;;;;4.97;59.82;101580.91;107817;1288;21968;-60
2023/01/11 09:41:33;;;;;;;14.10;5.40;;;;;;;4.96;59.63;101586.11;107857;1288;22588;-69
2023/01/11 09:44:09;;;;;;;10.70;4.80;;;;;;;4.97;59.59;101596.91;107239;1289;1002769;-71
2023/01/11 09:46:38;;;;;;;15.40;6.00;;;;;;;4.97;59.68;101604.76;107947;1288;21996;-60
2023/01/11 09:49:06;;;;;;;17.40;5.40;;;;;;;4.97;59.68;101599.69;107080;1289;1002246;-60
2023/01/11 09:51:34;;;;;;;15.30;6.00;;;;;;;4.99;59.40;101605.15;107721;1288;23658;-60
2023/01/11 09:54:02;;;;;;;15.20;4.90;;;;;;;5.14;59.30;101602.45;107802;1289;21992;-71
2023/01/11 09:56:33;;;;;;;18.80;5.80;;;;;;;5.23;58.87;101599.94;107769;1289;22034;-60
2023/01/11 09:59:02;;;;;;;15.50;4.90;;;;;;;5.27;58.79;101598.33;107709;1289;21990;-71
2023/01/11 10:01:49;;;;;;;16.10;5.10;;;;;;;5.30;58.96;101598.41;107824;1289;22005;-60
2023/01/11 10:04:31;;;;;;;14.60;5.70;;;;;;;5.34;58.71;101593.28;107738;1289;22003;-60
2023/01/11 10:07:05;;;;;;;18.30;6.10;;;;;;;5.36;58.76;101587.95;107715;1289;21993;-60
2023/01/11 10:09:38;;;;;;;16.20;6.60;;;;;;;5.42;58.62;101587.42;107859;1289;21989;-60
2023/01/11 10:12:35;;;;;;;15.50;6.00;;;;;;;5.42;58.36;101592.64;107941;1289;23116;-69
2023/01/11 10:15:07;;;;;;;21.90;6.60;;;;;;;5.41;58.44;101603.59;107930;1288;22449;-62
2023/01/11 10:17:45;;;;;;;14.20;5.90;;;;;;;5.46;58.34;101608.08;107837;1288;22000;-70
2023/01/11 10:20:11;;;;;;;16.30;5.80;;;;;;;5.46;58.55;101603.03;107688;1289;22082;-70
2023/01/11 10:22:41;;;;;;;12.30;5.20;;;;;;;5.40;58.81;101596.77;107769;1288;21996;-60
2023/01/11 10:25:20;;;;;;;14.40;5.80;;;;;;;5.49;58.55;101593.36;107900;1289;23117;-60
2023/01/11 10:28:00;;;;;;;14.60;5.90;;;;;;;5.56;58.44;101589.04;107764;1286;23018;-71
2023/01/11 10:33:41;;;;;;;13.60;5.80;;;;;;;5.57;58.62;101581.23;106979;1288;1002444;-60
2023/01/11 10:42:15;;;;;;;19.70;6.00;;;;;;;5.71;58.85;101565.09;107752;1289;22002;-60
2023/01/11 10:45:15;;;;;;;12.90;5.70;;;;;;;5.79;58.72;101569.98;107715;1289;22187;-71
2023/01/11 10:47:51;;;;;;;17.60;6.30;;;;;;;5.87;58.67;101567.75;106926;1288;1002432;-60
2023/01/11 10:50:24;;;;;;;13.80;5.90;;;;;;;5.91;58.55;101556.86;107060;1289;1002627;-60
2023/01/11 10:52:53;;;;;;;13.00;5.30;;;;;;;5.91;58.30;101547.82;107824;1289;21992;-72
2023/01/11 10:55:49;;;;;;;17.70;5.40;;;;;;;5.90;58.20;101538.41;107826;1289;21992;-59
2023/01/11 10:58:29;;;;;;;18.10;5.90;;;;;;;5.92;58.48;101538.61;107721;1288;21969;-71
2023/01/11 11:01:07;;;;;;;16.00;6.20;;;;;;;5.94;58.18;101543.89;107807;1286;22030;-60
2023/01/11 11:03:47;;;;;;;15.00;5.80;;;;;;;5.94;57.92;101543.38;107768;1285;22083;-60
2023/01/11 11:06:28;;;;;;;14.30;5.30;;;;;;;5.94;57.75;101540.39;107927;1288;21996;-60
2023/01/11 11:08:59;;;;;;;14.90;6.00;;;;;;;5.92;57.98;101541.56;108128;1288;21996;-60
2023/01/11 11:11:31;;;;;;;10.60;5.00;;;;;;;5.90;57.81;101554.38;108123;1288;21997;-73
2023/01/11 11:14:12;;;;;;;16.00;6.10;;;;;;;5.80;57.15;101556.57;107963;1289;22505;-60
2023/01/11 11:17:17;;;;;;;18.70;6.90;;;;;;;5.75;57.73;101551.92;107852;1289;21992;-71
2023/01/11 11:19:42;;;;;;;18.70;5.50;;;;;;;5.80;57.89;101553.09;107703;1290;21991;-72
2023/01/11 11:22:10;;;;;;;18.50;6.60;;;;;;;5.87;57.99;101548.23;107836;1290;21990;-71
2023/01/11 11:24:45;;;;;;;11.90;5.70;;;;;;;5.86;57.71;101544.88;107860;1290;22101;-60
2023/01/11 11:27:17;;;;;;;11.10;5.70;;;;;;;5.84;57.75;101546.58;107911;1290;22023;-72
2023/01/11 11:29:49;;;;;;;14.90;7.00;;;;;;;5.85;57.86;101547.98;108004;1288;23745;-60
2023/01/11 11:32:29;;;;;;;19.50;8.20;;;;;;;5.87;57.64;101547.35;108042;1288;24584;-60
2023/01/11 11:34:54;;;;;;;15.40;6.90;;;;;;;5.83;57.65;101541.67;107989;1288;22001;-60
2023/01/11 11:37:23;;;;;;;13.70;6.70;;;;;;;5.78;57.55;101542.95;107995;1288;21995;-60
2023/01/11 11:39:49;;;;;;;13.90;6.30;;;;;;;5.82;57.84;101548.27;108101;1288;21995;-60
2023/01/11 11:42:16;;;;;;;11.50;5.00;;;;;;;5.86;57.54;101540.89;108031;1283;23715;-61
2023/01/11 11:44:41;;;;;;;15.50;5.50;;;;;;;5.86;57.49;101531.32;108029;1288;23219;-73
2023/01/11 11:47:16;;;;;;;15.50;6.30;;;;;;;5.84;57.50;101535.80;107911;1288;21989;-71
2023/01/11 11:49:42;;;;;;;14.20;6.70;;;;;;;5.84;57.64;101529.86;108036;1288;22000;-60
2023/01/11 11:52:15;;;;;;;15.00;6.00;;;;;;;5.87;57.62;101522.63;107844;1288;21989;-70
2023/01/11 11:54:42;;;;;;;12.70;5.30;;;;;;;5.83;57.46;101523.05;107970;1288;22001;-72
2023/01/11 11:57:19;;;;;;;14.80;5.70;;;;;;;5.79;57.45;101522.77;107749;1289;21989;-60
2023/01/11 11:59:46;;;;;;;19.20;6.10;;;;;;;5.83;57.49;101527.73;107781;1288;21993;-73
2023/01/11 12:02:31;;;;;;;13.20;6.10;;;;;;;5.85;57.54;101529.02;107788;1288;21996;-71
2023/01/11 12:04:58;;;;;;;14.50;5.10;;;;;;;5.88;57.36;101529.11;107997;1288;22109;-71
2023/01/11 12:07:31;;;;;;;14.30;5.90;;;;;;;5.90;57.63;101529.69;107873;1288;21990;-71
2023/01/11 12:10:17;;;;;;;14.90;6.20;;;;;;;5.86;57.65;101537.07;106992;1288;1002479;-72
2023/01/11 12:12:49;;;;;;;16.00;5.80;;;;;;;5.71;56.80;101547.29;107996;1288;21988;-60
2023/01/11 12:15:17;;;;;;;16.00;6.00;;;;;;;5.62;57.26;101556.30;108036;1288;22079;-61
2023/01/11 12:17:44;;;;;;;14.50;6.10;;;;;;;5.64;57.47;101558.09;107803;1289;22030;-61
2023/01/11 12:20:31;;;;;;;15.80;5.80;;;;;;;5.65;57.29;101554.65;107623;1289;21986;-71
2023/01/11 12:23:17;;;;;;;16.80;5.60;;;;;;;5.67;57.64;101555.90;107793;1289;21997;-60
2023/01/11 12:25:49;;;;;;;12.10;5.30;;;;;;;5.65;57.57;101566.13;107909;1288;21990;-71
2023/01/11 12:28:44;;;;;;;12.30;5.70;;;;;;;5.67;57.63;101563.39;107940;1289;23063;-70
2023/01/11 12:31:34;;;;;;;12.00;5.80;;;;;;;5.71;57.69;101554.61;107780;1288;21982;-60
2023/01/11 12:34:28;;;;;;;15.30;6.00;;;;;;;5.72;57.74;101554.64;107800;1288;21999;-72
2023/01/11 12:37:03;;;;;;;13.40;5.70;;;;;;;5.72;57.79;101555.85;107795;1288;21999;-71
2023/01/11 12:39:37;;;;;;;19.40;8.00;;;;;;;5.72;57.57;101558.46;107758;1289;21994;-60
2023/01/11 12:42:27;;;;;;;15.20;5.40;;;;;;;5.71;57.67;101558.09;107911;1289;23068;-60
2023/01/11 12:45:35;;;;;;;12.30;5.20;;;;;;;5.74;58.13;101561.83;107787;1289;24310;-60
2023/01/11 12:48:19;;;;;;;10.80;4.40;;;;;;;5.77;57.99;101565.21;107669;1289;22007;-73
2023/01/11 12:51:03;;;;;;;13.60;5.20;;;;;;;5.81;57.81;101564.61;107888;1286;21989;-60
2023/01/11 12:53:44;;;;;;;13.00;5.60;;;;;;;5.86;58.07;101559.17;107768;1281;23334;-72
2023/01/11 12:56:25;;;;;;;19.00;6.50;;;;;;;5.89;58.08;101560.83;107851;1289;22032;-71
2023/01/11 12:58:55;;;;;;;15.40;6.70;;;;;;;5.89;57.79;101554.39;107790;1288;22001;-71
2023/01/11 16:50:36;;;;;;;17.00;7.00;;;;;;;-0.17;97.98;101620.08;107403;1282;547922;-58
2023/01/11 16:53:03;;;;;;;21.40;8.00;;;;;;;3.25;79.76;101603.45;107383;1294;21996;-58
2023/01/11 16:55:39;;;;;;;23.70;9.10;;;;;;;3.86;72.64;101604.44;107397;1297;22008;-70
2023/01/11 16:58:15;;;;;;;18.40;6.60;;;;;;;4.15;70.12;101605.46;107257;1297;22018;-71
2023/01/11 17:00:40;;;;;;;16.00;5.90;;;;;;;4.37;68.78;101602.17;107306;1297;22007;-71
2023/01/11 17:03:19;;;;;;;16.80;7.00;;;;;;;4.51;67.51;101604.52;106483;1293;1003177;-58
2023/01/11 17:06:01;;;;;;;10.40;5.30;;;;;;;4.63;66.97;101600.58;107634;1293;23454;-59
2023/01/11 17:08:33;;;;;;;11.00;4.30;;;;;;;4.76;66.20;101595.75;107643;1293;23095;-59
2023/01/11 17:11:02;;;;;;;10.60;3.90;;;;;;;4.85;65.48;101589.79;107793;1294;24393;-59
2023/01/11 17:13:52;;;;;;;8.70;3.80;;;;;;;4.90;64.81;101585.58;107737;1293;22027;-59
2023/01/11 17:16:20;;;;;;;10.60;3.60;;;;;;;4.94;64.12;101586.55;107718;1293;22027;-59
2023/01/11 17:18:46;;;;;;;11.90;3.90;;;;;;;4.97;63.68;101587.15;107004;1293;1002104;-71
2023/01/11 17:21:21;;;;;;;10.90;4.10;;;;;;;4.98;63.41;101589.11;106876;1293;1002656;-59
2023/01/11 17:23:47;;;;;;;57.00;37.50;;;;;;;4.99;63.16;101589.67;106996;1293;1002783;-60
2023/01/11 17:26:20;;;;;;;17.70;9.20;;;;;;;5.08;63.29;101591.14;107628;1292;22009;-59
2023/01/11 17:28:46;;;;;;;15.30;7.80;;;;;;;5.20;62.35;101579.50;107725;1293;22007;-59
2023/01/11 17:31:37;;;;;;;11.80;5.50;;;;;;;5.26;62.01;101571.99;106815;1293;1002318;-60
2023/01/11 17:34:15;;;;;;;7.50;4.40;;;;;;;5.24;61.38;101571.61;107763;1293;22051;-71
2023/01/11 17:36:41;;;;;;;10.90;4.30;;;;;;;5.25;61.28;101570.23;107717;1293;22010;-59
2023/01/11 17:39:07;;;;;;;13.30;4.50;;;;;;;5.26;61.21;101576.36;107658;1291;22117;-59
2023/01/11 17:47:07;;;;;;;9.20;4.60;;;;;;;5.24;60.45;101582.91;107714;1290;22006;-70
2023/01/11 17:49:34;;;;;;;10.30;4.10;;;;;;;5.24;60.43;101577.86;107071;1290;1002372;-59
2023/01/11 17:52:15;;;;;;;8.10;3.90;;;;;;;5.24;60.45;101575.77;107772;1290;22033;-60
2023/01/11 17:54:41;;;;;;;15.00;5.60;;;;;;;5.23;60.00;101572.11;107774;1290;22001;-71
2023/01/11 17:57:07;;;;;;;9.50;3.80;;;;;;;5.23;60.20;101579.58;107791;1291;22138;-72
2023/01/11 17:59:33;;;;;;;13.30;3.90;;;;;;;5.22;59.92;101578.16;107887;1290;22294;-59
2023/01/11 18:02:02;;;;;;;11.10;4.10;;;;;;;5.21;59.66;101571.70;107753;1290;22233;-60
2023/01/11 18:04:28;;;;;;;13.00;3.80;;;;;;;5.21;59.72;101565.61;107619;1291;23760;-59
2023/01/11 18:07:03;;;;;;;7.70;3.90;;;;;;;5.19;60.01;101568.34;107730;1290;22005;-70
2023/01/11 18:09:31;;;;;;;9.20;3.30;;;;;;;5.22;59.87;101568.95;107756;1290;22008;-71
2023/01/11 18:12:20;;;;;;;8.10;4.10;;;;;;;5.26;59.79;101567.13;107744;1290;22006;-71
2023/01/11 18:14:49;;;;;;;9.20;3.50;;;;;;;5.24;59.61;101575.42;107058;1290;1002282;-59
2023/01/11 18:17:29;;;;;;;10.20;2.90;;;;;;;5.21;59.48;101588.23;107188;1290;1002606;-58
2023/01/11 18:19:54;;;;;;;8.80;3.80;;;;;;;5.28;59.48;101589.64;107169;1290;1004210;-59
2023/01/11 18:22:40;;;;;;;7.80;3.70;;;;;;;5.32;59.27;101591.86;107697;1290;22009;-59
2023/01/11 18:25:23;;;;;;;13.10;4.40;;;;;;;5.37;59.23;101591.13;107646;1290;21999;-71
2023/01/11 18:27:49;;;;;;;8.40;3.30;;;;;;;5.42;59.47;101589.16;107747;1290;22004;-59
2023/01/11 18:30:31;;;;;;;13.40;3.60;;;;;;;5.46;59.38;101584.42;107726;1290;23632;-60
2023/01/11 18:32:58;;;;;;;9.10;3.40;;;;;;;5.51;59.27;101584.02;107713;1290;22008;-60
2023/01/11 18:35:26;;;;;;;9.20;4.20;;;;;;;5.55;59.48;101582.38;107907;1287;22014;-59
2023/01/11 18:37:51;;;;;;;10.20;3.90;;;;;;;5.56;59.30;101581.36;107977;1290;22009;-70
2023/01/11 18:40:18;;;;;;;11.20;4.40;;;;;;;5.55;59.32;101570.70;107795;1290;22029;-70
2023/01/11 18:42:51;;;;;;;12.60;4.70;;;;;;;5.53;58.89;101564.39;107852;1287;21996;-70
2023/01/11 18:45:16;;;;;;;8.00;3.90;;;;;;;5.48;58.55;101567.05;107937;1290;22006;-59
2023/01/11 18:47:43;;;;;;;12.80;4.30;;;;;;;5.46;58.64;101566.49;107686;1290;22001;-70
2023/01/11 18:50:11;;;;;;;11.30;4.40;;;;;;;5.48;58.84;101570.39;107832;1290;21984;-72
2023/01/11 18:52:37;;;;;;;9.50;3.90;;;;;;;5.54;59.10;101576.09;107765;1290;21989;-59
2023/01/11 18:55:03;;;;;;;7.80;4.00;;;;;;;5.61;59.26;101573.14;107548;1291;22036;-70
2023/01/11 18:57:30;;;;;;;12.00;4.30;;;;;;;5.65;59.10;101579.70;107719;1290;21996;-68
2023/01/11 18:59:56;;;;;;;15.10;4.40;;;;;;;5.68;58.93;101580.49;107723;1290;22012;-61
2023/01/11 19:02:31;;;;;;;13.10;4.80;;;;;;;5.75;59.21;101579.63;107700;1290;22002;-71
2023/01/11 19:04:57;;;;;;;15.10;5.40;;;;;;;5.81;59.16;101571.09;107743;1285;22012;-59
2023/01/11 19:07:24;;;;;;;11.40;4.00;;;;;;;5.86;58.82;101555.52;107813;1290;22032;-71
2023/01/11 19:09:50;;;;;;;9.10;3.70;;;;;;;5.87;58.79;101542.14;107671;1290;21993;-71
2023/01/11 19:12:17;;;;;;;14.40;4.00;;;;;;;5.85;58.44;101539.31;107635;1290;21989;-70
2023/01/11 19:14:43;;;;;;;10.00;4.00;;;;;;;5.82;58.28;101539.92;107636;1290;22006;-72
2023/01/11 19:17:09;;;;;;;15.80;4.50;;;;;;;5.81;58.13;101536.92;107653;1290;22006;-60
2023/01/11 19:19:35;;;;;;;13.00;5.30;;;;;;;5.79;58.07;101538.95;108008;1291;21998;-72
2023/01/11 19:22:01;;;;;;;13.00;5.30;;;;;;;5.78;58.04;101540.31;107876;1291;22229;-59
2023/01/11 19:24:27;;;;;;;12.00;5.20;;;;;;;5.77;58.04;101541.70;107672;1291;21999;-58
2023/01/11 19:26:53;;;;;;;13.00;5.00;;;;;;;5.78;58.32;101545.21;107684;1290;23724;-57
2023/01/11 19:29:21;;;;;;;13.80;4.40;;;;;;;5.75;58.14;101543.92;106995;1290;1007014;-69
2023/01/11 19:31:48;;;;;;;11.10;4.10;;;;;;;5.79;58.20;101541.92;107749;1290;21998;-69
2023/01/11 19:34:14;;;;;;;14.00;4.80;;;;;;;5.81;58.21;101531.52;107782;1285;21997;-69
2023/01/11 19:36:40;;;;;;;12.60;5.00;;;;;;;5.84;58.16;101522.02;107045;1290;1004183;-70
2023/01/11 19:39:07;;;;;;;14.40;4.90;;;;;;;5.88;57.84;101519.88;107889;1290;21997;-58
2023/01/11 19:44:28;;;;;;;15.50;4.90;;;;;;;5.87;58.07;101532.73;107739;1290;21998;-70
2023/01/11 19:46:54;;;;;;;13.10;4.80;;;;;;;5.89;58.01;101528.25;107669;1290;23131;-69
2023/01/11 19:49:21;;;;;;;12.50;4.70;;;;;;;5.87;57.89;101521.25;107760;1290;21996;-58
2023/01/11 19:51:48;;;;;;;12.80;5.20;;;;;;;5.83;57.69;101517.80;107770;1290;22044;-69
2023/01/11 19:54:14;;;;;;;17.20;4.90;;;;;;;5.78;57.71;101517.00;107742;1290;23074;-60
2023/01/11 19:56:41;;;;;;;14.70;4.80;;;;;;;5.73;57.51;101515.98;107754;1290;22014;-58
2023/01/11 19:59:08;;;;;;;15.90;5.00;;;;;;;5.69;57.66;101516.44;107891;1290;21993;-58
2023/01/11 20:01:34;;;;;;;19.30;5.90;;;;;;;5.65;57.41;101510.05;107995;1290;21991;-58
2023/01/11 20:04:00;;;;;;;15.40;6.00;;;;;;;5.64;57.58;101511.08;107781;1283;21997;-72
2023/01/11 20:06:26;;;;;;;17.50;5.50;;;;;;;5.66;57.45;101516.52;107737;1290;21997;-71
2023/01/11 20:08:53;;;;;;;21.40;6.60;;;;;;;5.68;57.46;101516.22;107750;1290;22001;-61
2023/01/11 20:11:19;;;;;;;14.00;5.10;;;;;;;5.68;57.47;101505.95;107753;1290;24423;-60
2023/01/11 20:13:49;;;;;;;17.90;5.60;;;;;;;5.70;57.72;101493.27;106962;1290;1002934;-71
2023/01/11 20:16:20;;;;;;;16.90;6.10;;;;;;;5.68;57.34;101493.91;107767;1290;22005;-59
2023/01/11 20:18:51;;;;;;;;;;;;;;;5.64;57.19;101501.31;107766;1290;21988;-59
2023/01/11 20:21:17;;;;;;;11.90;4.80;;;;;;;5.63;57.64;101513.14;107799;1290;22056;-59
2023/01/11 20:23:46;;;;;;;16.00;5.30;;;;;;;5.67;57.34;101508.88;106997;1290;1003066;-58